x

Halibut Bank (46146) Wave Buoy

12:00 - Mon 2nd Mar 2015 All times are PST. -8 hours from GMT.

  • Sig Wave height 1.3ft
  • Peak Period 3s
  • Wind
    13mph, 16mph gusts
  • Sea Temp 47°f
  • Aire Temp 43°f
  • Sea Pressure 1019.3mb
  • Halibut Bank
  • Halibut Bank

More Historic Weather Station data

Upgrade to MSW Pro to gain access to the past 30 days of data for over 8000 Wavebouys and Weather Stations around the globe.

Join Pro

Comparision Forecast

View Surf forecast
   
lun 03/02 12:00 1.3ft 3s 13 16 mph 1019.3mb 47f 43f
11:00 1.3ft 3s 13 16 mph 1019.6mb 47f 43f
10:00 1.3ft 3s 13 16 mph 1019.7mb 47f 42f
9:00 1.3ft 3s 13 18 mph 1019.7mb 47f 42f
8:00 1.6ft 4s 11 13 mph 1019.5mb 47f 42f
7:00 1.3ft 3s 13 18 mph 1019mb 47f 42f
6:00 1ft 3s 11 16 mph 1018.6mb 47f 42f
5:00 1ft 3s 13 18 mph 1018mb 47f 42f
4:00 1ft 3s 11 13 mph 1017.9mb 46f 42f
3:00 1ft 3s 11 13 mph 1017.9mb 46f 42f
2:00 1ft 3s 11 16 mph 1018.2mb 46f 42f
1:00 1ft 3s 9
mph
1017.9mb 46f 42f
12:00 0.7ft 3s 9 13 mph 1018mb 46f 42f
dom 03/01 11:00 0.7ft 6s 9
mph
1017.7mb 46f 42f
10:00 0.3ft 2s 9 11 mph 1017.8mb 46f 43f
9:00 0.7ft 3s 9 11 mph 1017.6mb 47f 42f
8:00 0.7ft 3s 9 11 mph 1017.4mb 47f 43f
7:00 0.7ft 3s 4 9 mph 1017.6mb 47f 43f
6:00 1ft 3s 4 7 mph 1017.4mb 47f 43f
5:00 0.7ft 2s 9 11 mph 1017.7mb 47f 43f
4:00 0.3ft 2s 9 18 mph 1018.6mb 47f 45f
3:00 0.3ft 3s 9 11 mph 1019.3mb 47f 44f
2:00 0.3ft 4s 2
mph
1019.8mb 47f 44f
1:00 0.3ft 5s  -  mph 1020.5mb 47f 45f
12:00 0.3ft 6s 2 4 mph 1021.6mb 47f 44f
11:00 0.3ft 2s 2
mph
1022.8mb 47f 44f
10:00 0.3ft 7s 4 7 mph 1023mb 47f 44f
9:00 0.3ft 4s 2 4 mph 1023.6mb 47f 44f
8:00 0.3ft 6s 2 4 mph 1023.8mb 47f 43f
7:00 0.3ft 2s 4
mph
1023.6mb 47f 43f
6:00 0.3ft 2s 2 4 mph 1023.8mb 47f 43f
5:00 0.3ft 2s 4 7 mph 1023.9mb 47f 43f
4:00 0.3ft 2s 4 7 mph 1023.6mb 47f 44f
3:00 0.3ft 2s 2 4 mph 1023.8mb 47f 44f
2:00 0.3ft 2s 2 4 mph 1024.1mb 47f 44f
1:00 0.7ft 3s 7 9 mph 1024.2mb 47f 45f
12:00 0.3ft 3s 7 9 mph 1024.3mb 47f 45f
sáb 02/28 11:00 0.3ft 6s  -  mph 1023.9mb 47f 45f
10:00 0.3ft 7s 2 4 mph 1023.9mb 47f 45f
9:00 0.3ft 6s 4
mph
1023.9mb 47f 45f
8:00 0.3ft 6s 7
mph
1023.6mb 48f 46f
7:00 0.3ft 4s 2
mph
1023.4mb 48f 47f
6:00 0.3ft 3s 2
mph
1023.5mb 48f 47f
5:00 0.7ft 3s  -  mph 1023.4mb 48f 52f
4:00 0.7ft 4s 2 4 mph 1023.4mb 49f 49f
2:00 0.7ft 4s 2 4 mph 1023.5mb 50f 47f
1:00 0.7ft 4s  -  2 mph 1023.9mb 50f 48f
12:00 0.7ft 4s  -  2 mph 1024.6mb 50f 47f
11:00 0.7ft 4s  -  mph 1024.6mb 48f 48f
10:00 1ft 3s  -  mph 1024.3mb 47f 49f
9:00 1ft 4s 2
mph
1024.3mb 47f 45f
8:00 1ft 4s 2
mph
1023.9mb 47f 45f
7:00 1ft 4s 4
mph
1022.9mb 47f 44f
6:00 1.3ft 4s 4 7 mph 1022.4mb 47f 43f
5:00 1.3ft 4s 4 7 mph 1021.9mb 47f 45f
4:00 1.3ft 4s 7 9 mph 1021.3mb 47f 45f
3:00 1.3ft 3s 4
mph
1020.7mb 47f 45f
2:00 1.3ft 3s 2 4 mph 1020.1mb 47f 47f
1:00 1.3ft 3s 7 9 mph 1019.8mb 47f 47f
12:00 1.3ft 4s 11 13 mph 1019.1mb 47f 48f
vie 02/27 11:00 1.3ft 3s 2 7 mph 1018.6mb 47f 50f
10:00 1.3ft 3s 4 11 mph 1017.9mb 47f 50f
9:00 0.7ft 3s 2 4 mph 1016.6mb 47f 49f
8:00 0.7ft 3s 2
mph
1015.5mb 47f 47f
7:00 0.7ft 3s  -  2 mph 1014.2mb 47f 48f
6:00 1ft 3s 4 7 mph 1013.1mb 48f 49f
5:00 1ft 3s 4 7 mph 1012.5mb 48f 49f
4:00 1.3ft 3s 9
mph
1011.8mb 48f 49f
3:00 1.3ft 3s 11 13 mph 1011.3mb 48f 48f
2:00 1.6ft 3s 13 16 mph 1011mb 48f 47f
1:00 1.6ft 4s 16 18 mph 1010.5mb 48f 46f
12:00 2ft 4s 16 18 mph 1010.5mb 47f 46f
11:00 2ft 4s 16 18 mph 1010.3mb 47f 46f
10:00 2ft 4s 18 22 mph 1010mb 47f 46f
9:00 2ft 4s 18 22 mph 1009.9mb 47f 46f
8:00 1.6ft 4s 18 20 mph 1009.4mb 47f 46f
7:00 1.6ft 4s 18 22 mph 1008.9mb 47f 46f
6:00 1.6ft 4s 18 22 mph 1008.9mb 47f 46f
5:00 1.6ft 3s 18 20 mph 1009.1mb 47f 46f
4:00 1.6ft 3s 16 20 mph 1009.5mb 47f 46f
3:00 1ft 3s 18 22 mph 1009.4mb 47f 46f
2:00 0.7ft 2s 11 13 mph 1010mb 47f 46f
1:00 0.7ft 2s 9 11 mph 1010.3mb 47f 46f
12:00 0.7ft 2s 11 13 mph 1010.9mb 47f 46f
jue 02/26 11:00 0.7ft 2s 13 16 mph 1011.3mb 47f 46f
10:00 0.3ft 2s 4 9 mph 1012.2mb 47f 46f